createdAt,value
2019-02-09T00:01:07.315Z,87.43
2019-02-09T00:03:36.758Z,87.88
2019-02-09T00:06:06.783Z,87.46
2019-02-09T00:08:36.244Z,88.09
2019-02-09T00:11:06.386Z,88.18
2019-02-09T00:13:35.876Z,88.02
2019-02-09T00:16:06.370Z,88.44
2019-02-09T00:18:36.071Z,88.25
2019-02-09T00:21:06.417Z,87.22
2019-02-09T00:23:36.011Z,87.75
2019-02-09T00:26:05.914Z,87.60
2019-02-09T00:28:35.331Z,87.56
2019-02-09T00:31:05.154Z,87.86
2019-02-09T00:33:34.940Z,87.79
2019-02-09T00:36:05.748Z,87.68
2019-02-09T00:38:35.143Z,87.92
2019-02-09T00:41:04.652Z,87.70
2019-02-09T00:43:34.125Z,87.78
2019-02-09T00:46:03.617Z,88.44
2019-02-09T00:48:33.074Z,89.19
2019-02-09T00:51:02.564Z,88.53
2019-02-09T00:53:31.940Z,87.75
2019-02-09T00:56:01.604Z,87.79
2019-02-09T00:58:31.102Z,87.71
2019-02-09T01:01:00.562Z,86.80
2019-02-09T01:03:29.985Z,86.95
2019-02-09T01:05:59.388Z,86.31
2019-02-09T01:08:28.847Z,86.67
2019-02-09T01:10:58.370Z,87.15
2019-02-09T01:13:27.747Z,86.30
2019-02-09T01:15:57.199Z,86.58
2019-02-09T01:18:26.719Z,87.09
2019-02-09T01:20:56.254Z,87.69
2019-02-09T01:23:25.624Z,87.00
2019-02-09T01:25:55.106Z,86.70
2019-02-09T01:28:24.584Z,86.35
2019-02-09T01:30:53.990Z,86.55
2019-02-09T01:33:23.491Z,86.13
2019-02-09T01:35:52.951Z,86.28
2019-02-09T01:38:22.319Z,86.23
2019-02-09T01:40:51.931Z,86.17
2019-02-09T01:43:21.414Z,86.46
2019-02-09T01:49:14.163Z,86.05
2019-02-09T01:51:43.546Z,86.34
2019-02-09T01:54:13.027Z,86.04
2019-02-09T01:56:42.615Z,85.10
2019-02-09T01:59:12.004Z,85.31
2019-02-09T02:01:41.407Z,86.40
2019-02-09T02:04:11.184Z,86.54
2019-02-09T02:06:40.647Z,86.59
2019-02-09T02:09:10.035Z,86.86
2019-02-09T02:11:39.726Z,86.67
2019-02-09T02:14:09.224Z,86.38
2019-02-09T02:16:38.588Z,87.00
2019-02-09T02:19:08.254Z,86.80
2019-02-09T02:21:37.822Z,87.60
2019-02-09T02:27:12.370Z,88.36
2019-02-09T02:29:41.877Z,88.81
2019-02-09T02:32:11.359Z,88.38
2019-02-09T02:34:40.753Z,87.93
2019-02-09T02:37:10.180Z,88.37
2019-02-09T02:39:39.749Z,87.09
2019-02-09T02:42:09.215Z,88.06
2019-02-09T02:44:38.656Z,88.59
2019-02-09T02:47:08.039Z,88.58
2019-02-09T02:49:37.510Z,88.21
2019-02-09T02:52:07.119Z,87.63
2019-02-09T02:54:36.592Z,86.68
2019-02-09T02:57:06.060Z,86.74
2019-02-09T02:59:35.564Z,86.65
2019-02-09T03:02:05.511Z,86.95
2019-02-09T03:04:34.970Z,87.81
2019-02-09T03:07:05.227Z,87.51
2019-02-09T03:09:34.600Z,87.33
2019-02-09T03:12:04.178Z,86.07
2019-02-09T03:14:34.076Z,86.82
2019-02-09T03:17:03.552Z,86.89
2019-02-09T03:19:32.927Z,86.87
2019-02-09T03:22:02.448Z,87.08
2019-02-09T03:24:31.921Z,87.51
2019-02-09T03:27:01.391Z,88.92
2019-02-09T03:29:30.819Z,88.58
2019-02-09T03:32:00.220Z,88.91
2019-02-09T03:34:29.681Z,89.38
2019-02-09T03:36:59.362Z,89.49
2019-02-09T03:39:28.723Z,89.76
2019-02-09T03:41:58.106Z,90.19
2019-02-09T03:44:27.614Z,90.15
2019-02-09T03:46:57.087Z,89.92
2019-02-09T03:49:26.470Z,90.08
2019-02-09T03:51:55.942Z,90.85
2019-02-09T03:54:25.418Z,90.59
2019-02-09T03:56:55.182Z,90.71
2019-02-09T03:59:24.588Z,90.94
2019-02-09T04:01:54.060Z,90.70
2019-02-09T04:04:23.538Z,90.16
2019-02-09T04:06:53.235Z,90.09
2019-02-09T04:09:23.522Z,90.39
2019-02-09T04:11:52.978Z,90.06
2019-02-09T04:14:22.404Z,90.43
2019-02-09T04:16:51.795Z,90.24
2019-02-09T04:19:21.487Z,90.48
2019-02-09T04:21:51.206Z,90.99
2019-02-09T04:24:20.593Z,90.46
2019-02-09T04:26:49.993Z,90.61
2019-02-09T04:29:19.523Z,90.23
2019-02-09T04:31:48.977Z,90.90
2019-02-09T04:34:18.357Z,91.05
2019-02-09T04:36:47.917Z,90.46
2019-02-09T04:39:17.394Z,90.19
2019-02-09T04:41:46.844Z,90.58
2019-02-09T04:44:16.332Z,90.98
2019-02-09T04:46:45.721Z,91.41
2019-02-09T04:49:15.180Z,90.70
2019-02-09T04:51:44.603Z,90.29
2019-02-09T04:54:14.091Z,89.88
2019-02-09T04:56:43.559Z,90.53
2019-02-09T04:59:12.980Z,90.63
2019-02-09T05:01:42.351Z,90.61
2019-02-09T05:04:11.816Z,90.43
2019-02-09T05:06:41.312Z,90.21
2019-02-09T05:09:10.703Z,90.68
2019-02-09T05:11:40.093Z,91.08
2019-02-09T05:14:09.618Z,90.35
2019-02-09T05:16:39.144Z,90.71
2019-02-09T05:19:08.630Z,91.94
2019-02-09T05:21:38.065Z,92.91
2019-02-09T05:24:07.576Z,93.08
2019-02-09T05:26:37.055Z,93.24
2019-02-09T05:29:06.526Z,93.18
2019-02-09T05:31:36.079Z,93.30
2019-02-09T05:34:05.557Z,93.75
2019-02-09T05:36:35.008Z,92.87
2019-02-09T05:39:06.037Z,93.21
2019-02-09T05:41:35.487Z,94.44
2019-02-09T05:44:05.055Z,95.44
2019-02-09T05:46:35.263Z,95.28
2019-02-09T05:49:04.749Z,95.35
2019-02-09T05:51:34.257Z,96.13
2019-02-09T05:54:03.656Z,95.24
2019-02-09T05:56:33.236Z,95.29
2019-02-09T05:59:02.774Z,95.50
2019-02-09T06:01:32.738Z,96.03
2019-02-09T06:04:02.195Z,96.49
2019-02-09T06:06:31.617Z,96.66
2019-02-09T06:09:01.099Z,96.87
2019-02-09T06:11:30.487Z,96.89
2019-02-09T06:13:59.982Z,96.68
2019-02-09T06:16:30.779Z,96.41
2019-02-09T06:19:00.657Z,96.81
2019-02-09T06:21:30.317Z,97.07
2019-02-09T06:24:00.120Z,96.41
2019-02-09T06:26:29.605Z,96.38
2019-02-09T06:28:59.050Z,97.61
2019-02-09T06:31:28.443Z,97.82
2019-02-09T06:33:57.928Z,96.95
2019-02-09T06:36:27.432Z,96.58
2019-02-09T06:38:56.809Z,96.42
2019-02-09T06:41:26.197Z,96.58
2019-02-09T06:43:55.701Z,96.50
2019-02-09T06:46:25.156Z,97.10
2019-02-09T06:48:54.605Z,96.28
2019-02-09T06:51:24.103Z,96.86
2019-02-09T06:53:53.488Z,96.55
2019-02-09T06:56:22.924Z,96.58
2019-02-09T06:58:52.548Z,95.67
2019-02-09T07:01:22.048Z,94.27
2019-02-09T07:03:51.482Z,93.22
2019-02-09T07:06:20.929Z,92.88
2019-02-09T07:08:51.151Z,91.84
2019-02-09T07:11:20.705Z,90.97
2019-02-09T07:13:50.291Z,90.70
2019-02-09T07:16:19.688Z,90.85
2019-02-09T07:18:49.181Z,90.68
2019-02-09T07:21:18.704Z,89.13
2019-02-09T07:23:48.322Z,89.15
2019-02-09T07:26:17.736Z,88.30
2019-02-09T07:28:47.244Z,89.48
2019-02-09T07:31:16.648Z,89.94
2019-02-09T07:33:46.253Z,88.81
2019-02-09T07:36:16.069Z,88.69
2019-02-09T07:38:45.447Z,87.82
2019-02-09T07:41:14.871Z,86.95
2019-02-09T07:43:44.619Z,87.07
2019-02-09T07:46:14.413Z,86.33
2019-02-09T07:48:43.773Z,86.34
2019-02-09T07:51:13.844Z,86.31
2019-02-09T07:53:43.308Z,85.41
2019-02-09T07:56:12.868Z,85.31
2019-02-09T07:58:42.473Z,85.22
2019-02-09T08:01:11.829Z,85.13
2019-02-09T08:03:41.339Z,84.43
2019-02-09T08:06:10.955Z,84.84
2019-02-09T08:08:40.316Z,84.35
2019-02-09T08:11:09.913Z,83.36
2019-02-09T08:13:39.361Z,82.51
2019-02-09T08:16:09.001Z,82.71
2019-02-09T08:18:39.505Z,81.92
2019-02-09T08:21:09.140Z,80.82
2019-02-09T08:23:38.554Z,80.07
2019-02-09T08:26:07.942Z,80.68
2019-02-09T08:28:37.482Z,81.94
2019-02-09T08:31:07.055Z,81.41
2019-02-09T08:33:36.423Z,81.20
2019-02-09T08:36:05.835Z,82.17
2019-02-09T08:38:35.306Z,79.82
2019-02-09T08:41:04.754Z,78.72
2019-02-09T08:43:34.314Z,78.05
2019-02-09T08:46:03.804Z,77.79
2019-02-09T08:48:33.308Z,77.23
2019-02-09T08:51:06.578Z,78.94
2019-02-09T08:53:35.937Z,77.97
2019-02-09T08:56:05.746Z,76.67
2019-02-09T08:58:35.258Z,76.82
2019-02-09T09:01:05.372Z,78.47
2019-02-09T09:03:34.786Z,77.68
2019-02-09T09:06:04.758Z,77.19
2019-02-09T09:08:34.230Z,76.21
2019-02-09T09:11:03.719Z,75.79
2019-02-09T09:13:33.299Z,75.54
2019-02-09T09:16:06.481Z,75.25
2019-02-09T09:18:35.980Z,75.47
2019-02-09T09:21:06.026Z,75.83
2019-02-09T09:23:35.431Z,76.08
2019-02-09T09:26:05.142Z,75.32
2019-02-09T09:28:34.857Z,75.67
2019-02-09T09:31:04.547Z,74.92
2019-02-09T09:33:34.111Z,75.30
2019-02-09T09:36:03.709Z,74.24
2019-02-09T09:38:33.078Z,72.51
2019-02-09T09:41:02.457Z,72.49
2019-02-09T09:43:33.908Z,70.98
2019-02-09T09:46:03.236Z,70.52
2019-02-09T09:48:32.616Z,69.45
2019-02-09T09:51:02.136Z,69.53
2019-02-09T09:53:31.615Z,69.56
2019-02-09T09:56:01.065Z,69.39
2019-02-09T09:58:30.790Z,67.29
2019-02-09T10:01:00.185Z,68.05
2019-02-09T10:03:29.677Z,67.78
2019-02-09T10:05:59.189Z,67.00
2019-02-09T10:08:28.554Z,67.45
2019-02-09T10:10:58.015Z,67.21
2019-02-09T10:13:27.666Z,66.90
2019-02-09T10:15:57.042Z,68.29
2019-02-09T10:18:26.515Z,67.74
2019-02-09T10:20:56.020Z,68.62
2019-02-09T10:23:25.417Z,69.55
2019-02-09T10:25:54.820Z,69.20
2019-02-09T10:28:24.581Z,69.39
2019-02-09T10:30:54.041Z,69.24
2019-02-09T10:33:23.449Z,66.86
2019-02-09T10:35:52.873Z,64.93
2019-02-09T10:38:23.376Z,63.29
2019-02-09T10:40:52.876Z,62.75
2019-02-09T10:43:22.534Z,61.94
2019-02-09T10:45:51.908Z,61.42
2019-02-09T10:48:21.392Z,60.83
2019-02-09T10:50:51.061Z,62.10
2019-02-09T10:53:20.505Z,60.60
2019-02-09T10:55:50.054Z,59.80
2019-02-09T10:58:19.657Z,62.08
2019-02-09T11:00:55.511Z,62.33
2019-02-09T11:03:25.234Z,63.07
2019-02-09T11:05:54.831Z,63.14
2019-02-09T11:08:24.219Z,63.83
2019-02-09T11:10:53.840Z,62.92
2019-02-09T11:13:23.650Z,61.34
2019-02-09T11:15:53.124Z,60.62
2019-02-09T11:18:22.689Z,60.27
2019-02-09T11:20:52.173Z,60.11
2019-02-09T11:23:21.840Z,61.65
2019-02-09T11:25:51.324Z,61.39
2019-02-09T11:28:20.718Z,59.07
2019-02-09T11:30:50.224Z,59.21
2019-02-09T11:33:19.598Z,60.92
2019-02-09T11:35:48.975Z,62.12
2019-02-09T11:38:18.511Z,60.24
2019-02-09T11:40:47.959Z,62.11
2019-02-09T11:43:17.341Z,62.35
2019-02-09T11:45:46.768Z,62.44
2019-02-09T11:48:16.232Z,61.78
2019-02-09T11:50:45.688Z,60.13
2019-02-09T11:53:15.445Z,58.78
2019-02-09T11:55:44.831Z,60.00
2019-02-09T11:58:14.617Z,58.85
2019-02-09T12:00:50.569Z,58.46
2019-02-09T12:03:20.154Z,59.00
2019-02-09T12:05:49.530Z,58.89
2019-02-09T12:08:19.023Z,58.50
2019-02-09T12:10:48.393Z,57.78
2019-02-09T12:13:17.892Z,58.14
2019-02-09T12:15:47.437Z,59.25
2019-02-09T12:18:16.831Z,59.34
2019-02-09T12:20:46.213Z,58.88
2019-02-09T12:23:15.770Z,58.81
2019-02-09T12:25:45.992Z,58.54
2019-02-09T12:28:15.683Z,59.99
2019-02-09T12:30:45.294Z,60.01
2019-02-09T12:33:22.770Z,58.84
2019-02-09T12:35:46.109Z,57.73
2019-02-09T12:38:15.533Z,57.09
2019-02-09T12:40:44.943Z,57.67
2019-02-09T12:43:14.419Z,56.09
2019-02-09T12:45:43.972Z,56.14
2019-02-09T12:48:13.683Z,57.10
2019-02-09T12:50:43.241Z,56.99
2019-02-09T12:53:12.903Z,56.98
2019-02-09T12:55:42.295Z,57.90
2019-02-09T12:58:11.859Z,57.57
2019-02-09T13:00:41.465Z,56.21
2019-02-09T13:03:17.019Z,56.07
2019-02-09T13:05:47.396Z,56.77
2019-02-09T13:08:17.383Z,57.83
2019-02-09T13:10:46.890Z,57.87
2019-02-09T13:13:16.861Z,57.64
2019-02-09T13:15:46.563Z,56.79
2019-02-09T13:18:19.501Z,57.02
2019-02-09T13:20:48.999Z,57.41
2019-02-09T13:23:18.360Z,57.43
2019-02-09T13:25:47.789Z,57.93
2019-02-09T13:28:18.641Z,59.75
2019-02-09T13:30:48.081Z,60.89
2019-02-09T13:33:17.557Z,61.64
2019-02-09T13:35:47.089Z,61.38
2019-02-09T13:38:16.475Z,61.56
2019-02-09T13:40:45.924Z,61.68
2019-02-09T13:43:15.555Z,61.04
2019-02-09T13:45:48.249Z,61.11
2019-02-09T13:48:17.648Z,60.68
2019-02-09T13:50:47.345Z,60.83
2019-02-09T13:53:16.956Z,62.10
2019-02-09T13:55:46.472Z,62.45
2019-02-09T13:58:15.938Z,63.59
2019-02-09T14:00:45.427Z,63.71
2019-02-09T14:03:14.911Z,64.57
2019-02-09T14:05:44.519Z,64.49
2019-02-09T14:08:13.898Z,63.95
2019-02-09T14:10:43.363Z,63.87
2019-02-09T14:13:14.521Z,64.36
2019-02-09T14:15:44.270Z,63.59
2019-02-09T14:18:13.772Z,63.61
2019-02-09T14:20:43.400Z,64.66
2019-02-09T14:23:12.911Z,64.31
2019-02-09T14:25:42.470Z,65.56
2019-02-09T14:28:12.368Z,65.77
2019-02-09T14:30:42.479Z,65.64
2019-02-09T14:33:12.773Z,66.06
2019-02-09T14:35:43.369Z,67.31
2019-02-09T14:38:12.865Z,67.78
2019-02-09T14:40:43.019Z,67.84
2019-02-09T14:43:12.866Z,68.18
2019-02-09T14:45:44.078Z,68.17
2019-02-09T14:48:13.904Z,67.86
2019-02-09T14:50:43.592Z,68.41
2019-02-09T14:53:14.133Z,69.16
2019-02-09T14:55:44.152Z,69.50
2019-02-09T14:58:14.368Z,69.66
2019-02-09T15:00:49.298Z,69.98
2019-02-09T15:03:25.955Z,70.05
2019-02-09T15:05:49.961Z,70.70
2019-02-09T15:08:19.516Z,70.80
2019-02-09T15:10:49.066Z,71.09
2019-02-09T15:13:19.891Z,71.26
2019-02-09T15:15:56.227Z,72.09
2019-02-09T15:18:25.735Z,72.45
2019-02-09T15:20:58.001Z,72.39
2019-02-09T15:23:27.436Z,72.85
2019-02-09T15:25:56.900Z,72.83
2019-02-09T15:28:26.363Z,72.96
2019-02-09T15:30:56.404Z,73.43
2019-02-09T15:33:26.077Z,73.96
2019-02-09T15:35:55.606Z,74.54
2019-02-09T15:38:25.040Z,74.85
2019-02-09T15:40:54.465Z,75.46
2019-02-09T15:43:27.760Z,75.74
2019-02-09T15:46:00.184Z,76.30
2019-02-09T15:48:29.766Z,76.40
2019-02-09T15:50:59.312Z,76.75
2019-02-09T15:53:28.935Z,77.64
2019-02-09T15:55:58.360Z,77.71
2019-02-09T15:58:27.888Z,78.10
2019-02-09T16:00:57.368Z,78.92
2019-02-09T16:03:26.854Z,78.68
2019-02-09T16:05:56.338Z,78.54
2019-02-09T16:08:25.834Z,78.90
2019-02-09T16:10:55.469Z,79.42
2019-02-09T16:13:24.872Z,79.61
2019-02-09T16:15:54.365Z,80.12
2019-02-09T16:18:23.969Z,80.23
2019-02-09T16:20:53.391Z,80.84
2019-02-09T16:23:22.839Z,80.91
2019-02-09T16:25:52.480Z,81.14
2019-02-09T16:28:22.094Z,81.23
2019-02-09T16:30:51.579Z,81.31
2019-02-09T16:33:20.997Z,81.46
2019-02-09T16:35:50.452Z,81.66
2019-02-09T16:38:20.146Z,81.95
2019-02-09T16:40:49.667Z,82.45
2019-02-09T16:43:20.334Z,82.54
2019-02-09T16:45:49.971Z,82.95
2019-02-09T16:48:19.436Z,83.43
2019-02-09T16:50:48.900Z,83.70
2019-02-09T16:53:18.458Z,84.19
2019-02-09T16:55:48.158Z,84.98
2019-02-09T16:58:17.565Z,85.61
2019-02-09T17:00:47.420Z,85.71
2019-02-09T17:03:16.928Z,86.54
2019-02-09T17:05:46.355Z,87.21
2019-02-09T17:08:15.837Z,87.12
2019-02-09T17:10:45.923Z,87.99
2019-02-09T17:13:15.429Z,88.16
2019-02-09T17:15:44.900Z,88.17
2019-02-09T17:18:14.318Z,87.63
2019-02-09T17:20:43.790Z,87.19
2019-02-09T17:23:13.634Z,87.92
2019-02-09T17:25:43.162Z,88.15
2019-02-09T17:28:12.755Z,88.83
2019-02-09T17:30:42.803Z,89.06
2019-02-09T17:33:13.647Z,89.19
2019-02-09T17:35:43.077Z,90.34
2019-02-09T17:38:12.590Z,90.97
2019-02-09T17:40:47.173Z,91.00
2019-02-09T17:43:16.609Z,91.38
2019-02-09T17:45:51.879Z,91.56
2019-02-09T17:48:21.409Z,92.04
2019-02-09T17:50:50.859Z,91.54
2019-02-09T17:53:20.244Z,91.30
2019-02-09T17:55:50.102Z,91.23
2019-02-09T17:58:19.592Z,91.13
2019-02-09T18:01:08.023Z,91.54
2019-02-09T18:03:37.438Z,91.67
2019-02-09T18:06:07.042Z,92.35
2019-02-09T18:08:36.508Z,93.42
2019-02-09T18:11:06.441Z,94.38
2019-02-09T18:13:36.078Z,94.39
2019-02-09T18:16:06.006Z,95.43
2019-02-09T18:18:35.392Z,96.37
2019-02-09T18:21:04.938Z,97.12
2019-02-09T18:23:34.465Z,97.71
2019-02-09T18:26:03.900Z,97.83
2019-02-09T18:28:33.429Z,98.49
2019-02-09T18:31:02.915Z,98.79
2019-02-09T18:33:32.442Z,98.88
2019-02-09T18:36:01.881Z,98.46
2019-02-09T18:38:31.292Z,98.86
2019-02-09T18:41:00.750Z,99.37
2019-02-09T18:43:30.524Z,100.00
2019-02-09T18:46:00.003Z,100.00
2019-02-09T18:48:29.533Z,100.00
2019-02-09T18:50:58.978Z,100.00
2019-02-09T18:53:28.426Z,100.00
2019-02-09T18:55:58.108Z,100.00
2019-02-09T18:58:27.649Z,100.00
2019-02-09T19:00:57.153Z,100.00
2019-02-09T19:03:26.542Z,100.00
2019-02-09T19:05:55.989Z,100.00
2019-02-09T19:08:25.616Z,100.00
2019-02-09T19:10:55.051Z,100.00
2019-02-09T19:13:24.448Z,100.00
2019-02-09T19:15:53.977Z,100.00
2019-02-09T19:18:23.459Z,100.00
2019-02-09T19:20:55.690Z,100.00
2019-02-09T19:23:25.114Z,100.00
2019-02-09T19:25:54.594Z,100.00
2019-02-09T19:28:24.125Z,100.00
2019-02-09T19:30:53.594Z,100.00
2019-02-09T19:33:22.987Z,100.00
2019-02-09T19:35:52.479Z,100.00
2019-02-09T19:38:21.999Z,100.00
2019-02-09T19:40:51.618Z,100.00
2019-02-09T19:43:20.999Z,99.75
2019-02-09T19:45:50.923Z,99.78
2019-02-09T19:48:20.437Z,100.00
2019-02-09T19:50:49.872Z,100.00
2019-02-09T19:53:19.299Z,100.00
2019-02-09T19:55:48.750Z,100.00
2019-02-09T19:58:18.279Z,100.00
2019-02-09T20:00:48.072Z,100.00
2019-02-09T20:03:17.464Z,100.00
2019-02-09T20:05:46.928Z,100.00
2019-02-09T20:08:16.397Z,100.00
2019-02-09T20:10:45.832Z,100.00
2019-02-09T20:13:15.448Z,100.00
2019-02-09T20:15:45.019Z,100.00
2019-02-09T20:18:14.451Z,100.00
2019-02-09T20:20:47.349Z,100.00
2019-02-09T20:23:15.451Z,100.00
2019-02-09T20:25:44.865Z,100.00
2019-02-09T20:28:14.243Z,100.00
2019-02-09T20:30:44.031Z,100.00
2019-02-09T20:33:13.569Z,100.00
2019-02-09T20:35:43.047Z,100.00
2019-02-09T20:38:12.482Z,100.00
2019-02-09T20:40:47.877Z,100.00
2019-02-09T20:43:18.765Z,100.00
2019-02-09T20:45:48.283Z,100.00
2019-02-09T20:48:17.732Z,100.00
2019-02-09T20:50:47.228Z,100.00
2019-02-09T20:53:16.609Z,100.00
2019-02-09T20:55:46.059Z,100.00
2019-02-09T20:58:16.112Z,100.00
2019-02-09T21:00:45.530Z,100.00
2019-02-09T21:03:14.920Z,100.00
2019-02-09T21:05:44.408Z,100.00
2019-02-09T21:08:13.885Z,100.00
2019-02-09T21:10:43.467Z,100.00
2019-02-09T21:13:13.001Z,100.00
2019-02-09T21:15:42.418Z,100.00
2019-02-09T21:18:12.023Z,100.00
2019-02-09T21:20:41.483Z,100.00
2019-02-09T21:23:10.966Z,100.00
2019-02-09T21:25:42.140Z,100.00
2019-02-09T21:28:11.612Z,100.00
2019-02-09T21:30:41.409Z,100.00
2019-02-09T21:33:10.871Z,100.00
2019-02-09T21:35:44.021Z,100.00
2019-02-09T21:38:11.760Z,100.00
2019-02-09T21:40:41.259Z,100.00
2019-02-09T21:43:10.925Z,100.00
2019-02-09T21:45:45.485Z,100.00
2019-02-09T21:48:11.480Z,100.00
2019-02-09T21:50:41.263Z,100.00
2019-02-09T21:53:10.744Z,100.00
2019-02-09T21:55:40.194Z,100.00
2019-02-09T21:58:09.842Z,100.00
2019-02-09T22:00:41.498Z,100.00
2019-02-09T22:03:12.689Z,100.00
2019-02-09T22:05:42.307Z,100.00
2019-02-09T22:08:19.387Z,100.00
2019-02-09T22:10:44.825Z,100.00
2019-02-09T22:13:14.592Z,100.00
2019-02-09T22:15:44.103Z,100.00
2019-02-09T22:18:13.638Z,100.00
2019-02-09T22:20:43.250Z,100.00
2019-02-09T22:23:12.660Z,100.00
2019-02-09T22:25:42.154Z,100.00
2019-02-09T22:28:11.642Z,100.00
2019-02-09T22:30:41.165Z,100.00
2019-02-09T22:33:10.961Z,100.00
2019-02-09T22:35:40.417Z,100.00
2019-02-09T22:38:10.022Z,100.00
2019-02-09T22:40:39.754Z,100.00
2019-02-09T22:43:09.404Z,100.00
2019-02-09T22:45:38.867Z,100.00
2019-02-09T22:48:09.678Z,100.00
2019-02-09T22:50:41.515Z,100.00
2019-02-09T22:53:11.113Z,100.00
2019-02-09T22:55:40.690Z,100.00
2019-02-09T22:58:10.070Z,100.00
2019-02-09T23:01:05.756Z,100.00
2019-02-09T23:03:42.593Z,100.00
2019-02-09T23:06:42.885Z,100.00
2019-02-09T23:09:16.017Z,100.00
2019-02-09T23:11:45.466Z,100.00
2019-02-09T23:14:15.162Z,100.00
2019-02-09T23:16:44.615Z,100.00
2019-02-09T23:19:14.012Z,100.00
2019-02-09T23:21:43.505Z,100.00
2019-02-09T23:24:13.018Z,100.00
2019-02-09T23:26:42.461Z,100.00
2019-02-09T23:29:11.973Z,100.00
2019-02-09T23:31:41.451Z,100.00
2019-02-09T23:34:12.136Z,100.00
2019-02-09T23:36:41.623Z,100.00
2019-02-09T23:39:11.105Z,100.00
2019-02-09T23:41:40.551Z,100.00
2019-02-09T23:44:10.043Z,100.00
2019-02-09T23:46:39.495Z,100.00
2019-02-09T23:49:08.981Z,100.00
2019-02-09T23:51:38.443Z,100.00
2019-02-09T23:54:07.847Z,100.00
2019-02-09T23:56:37.294Z,100.00
2019-02-09T23:59:06.801Z,100.00
